sensor_id;sensor_type;location;lat;lon;timestamp;temperature;humidity
64226;DHT22;50545;56.064;26.178;2022-08-01T00:00:47;15.50;99.90
64226;DHT22;50545;56.064;26.178;2022-08-01T00:03:14;15.50;99.90
64226;DHT22;50545;56.064;26.178;2022-08-01T00:05:41;15.50;99.90
64226;DHT22;50545;56.064;26.178;2022-08-01T00:08:10;15.50;99.90
64226;DHT22;50545;56.064;26.178;2022-08-01T00:10:37;15.50;99.90
64226;DHT22;50545;56.064;26.178;2022-08-01T00:13:04;15.50;99.90
64226;DHT22;50545;56.064;26.178;2022-08-01T00:15:32;15.50;99.90
64226;DHT22;50545;56.064;26.178;2022-08-01T00:18:00;15.50;99.90
64226;DHT22;50545;56.064;26.178;2022-08-01T00:20:28;15.50;99.90
64226;DHT22;50545;56.064;26.178;2022-08-01T00:22:55;15.50;99.90
64226;DHT22;50545;56.064;26.178;2022-08-01T00:25:22;15.50;99.90
64226;DHT22;50545;56.064;26.178;2022-08-01T00:27:59;15.50;99.90
64226;DHT22;50545;56.064;26.178;2022-08-01T00:30:27;15.50;99.90
64226;DHT22;50545;56.064;26.178;2022-08-01T00:32:54;15.50;99.90
64226;DHT22;50545;56.064;26.178;2022-08-01T00:35:21;15.50;99.90
64226;DHT22;50545;56.064;26.178;2022-08-01T00:37:48;15.50;99.90
64226;DHT22;50545;56.064;26.178;2022-08-01T00:40:15;15.50;99.90
64226;DHT22;50545;56.064;26.178;2022-08-01T00:42:43;15.50;99.90
64226;DHT22;50545;56.064;26.178;2022-08-01T00:45:11;15.50;99.90
64226;DHT22;50545;56.064;26.178;2022-08-01T00:47:38;15.50;99.90
64226;DHT22;50545;56.064;26.178;2022-08-01T00:50:06;15.50;99.90
64226;DHT22;50545;56.064;26.178;2022-08-01T00:52:34;15.50;99.90
64226;DHT22;50545;56.064;26.178;2022-08-01T00:55:02;15.60;99.90
64226;DHT22;50545;56.064;26.178;2022-08-01T00:57:30;15.60;99.90
64226;DHT22;50545;56.064;26.178;2022-08-01T01:00:17;15.60;99.90
64226;DHT22;50545;56.064;26.178;2022-08-01T01:02:53;15.60;99.90
64226;DHT22;50545;56.064;26.178;2022-08-01T01:05:20;15.60;99.90
64226;DHT22;50545;56.064;26.178;2022-08-01T01:07:59;15.60;99.90
64226;DHT22;50545;56.064;26.178;2022-08-01T01:13:09;15.60;99.90
64226;DHT22;50545;56.064;26.178;2022-08-01T01:18:30;15.60;99.90
64226;DHT22;50545;56.064;26.178;2022-08-01T01:26:45;15.60;99.90
64226;DHT22;50545;56.064;26.178;2022-08-01T01:29:38;15.50;99.90
64226;DHT22;50545;56.064;26.178;2022-08-01T01:32:36;15.50;99.90
64226;DHT22;50545;56.064;26.178;2022-08-01T01:35:26;15.50;99.90
64226;DHT22;50545;56.064;26.178;2022-08-01T01:37:58;15.50;99.90
64226;DHT22;50545;56.064;26.178;2022-08-01T01:40:27;15.50;99.90
64226;DHT22;50545;56.064;26.178;2022-08-01T01:42:56;15.50;99.90
64226;DHT22;50545;56.064;26.178;2022-08-01T01:45:24;15.50;99.90
64226;DHT22;50545;56.064;26.178;2022-08-01T01:47:52;15.50;99.90
64226;DHT22;50545;56.064;26.178;2022-08-01T01:50:22;15.50;99.90
64226;DHT22;50545;56.064;26.178;2022-08-01T01:52:51;15.50;99.90
64226;DHT22;50545;56.064;26.178;2022-08-01T01:55:21;15.50;99.90
64226;DHT22;50545;56.064;26.178;2022-08-01T01:57:51;15.50;99.90
64226;DHT22;50545;56.064;26.178;2022-08-01T02:00:19;15.50;99.90
64226;DHT22;50545;56.064;26.178;2022-08-01T02:02:47;15.50;99.90
64226;DHT22;50545;56.064;26.178;2022-08-01T02:05:15;15.50;99.90
64226;DHT22;50545;56.064;26.178;2022-08-01T02:07:44;15.50;99.90
64226;DHT22;50545;56.064;26.178;2022-08-01T02:10:16;15.50;99.90
64226;DHT22;50545;56.064;26.178;2022-08-01T02:12:45;15.50;99.90
64226;DHT22;50545;56.064;26.178;2022-08-01T02:15:15;15.50;99.90
64226;DHT22;50545;56.064;26.178;2022-08-01T02:17:47;15.40;99.90
64226;DHT22;50545;56.064;26.178;2022-08-01T02:20:16;15.50;99.90
64226;DHT22;50545;56.064;26.178;2022-08-01T02:22:56;15.40;99.90
64226;DHT22;50545;56.064;26.178;2022-08-01T02:25:33;15.50;99.90
64226;DHT22;50545;56.064;26.178;2022-08-01T02:28:07;15.40;99.90
64226;DHT22;50545;56.064;26.178;2022-08-01T02:30:39;15.40;99.90
64226;DHT22;50545;56.064;26.178;2022-08-01T02:33:27;15.50;99.90
64226;DHT22;50545;56.064;26.178;2022-08-01T02:36:00;15.40;99.90
64226;DHT22;50545;56.064;26.178;2022-08-01T02:38:50;15.40;99.90
64226;DHT22;50545;56.064;26.178;2022-08-01T02:41:20;15.40;99.90
64226;DHT22;50545;56.064;26.178;2022-08-01T02:43:54;15.40;99.90
64226;DHT22;50545;56.064;26.178;2022-08-01T02:46:35;15.40;99.90
64226;DHT22;50545;56.064;26.178;2022-08-01T02:49:06;15.40;99.90
64226;DHT22;50545;56.064;26.178;2022-08-01T02:51:35;15.40;99.90
64226;DHT22;50545;56.064;26.178;2022-08-01T02:54:05;15.40;99.90
64226;DHT22;50545;56.064;26.178;2022-08-01T02:56:34;15.40;99.90
64226;DHT22;50545;56.064;26.178;2022-08-01T02:59:08;15.40;99.90
64226;DHT22;50545;56.064;26.178;2022-08-01T03:01:39;15.40;99.90
64226;DHT22;50545;56.064;26.178;2022-08-01T03:04:10;15.40;99.90
64226;DHT22;50545;56.064;26.178;2022-08-01T03:06:39;15.40;99.90
64226;DHT22;50545;56.064;26.178;2022-08-01T03:09:11;15.40;99.90
64226;DHT22;50545;56.064;26.178;2022-08-01T03:11:43;15.30;99.90
64226;DHT22;50545;56.064;26.178;2022-08-01T03:14:12;15.40;99.90
64226;DHT22;50545;56.064;26.178;2022-08-01T03:16:42;15.40;99.90
64226;DHT22;50545;56.064;26.178;2022-08-01T03:19:12;15.30;99.90
64226;DHT22;50545;56.064;26.178;2022-08-01T03:21:41;15.40;99.90
64226;DHT22;50545;56.064;26.178;2022-08-01T03:24:10;15.30;99.90
64226;DHT22;50545;56.064;26.178;2022-08-01T03:26:39;15.30;99.90
64226;DHT22;50545;56.064;26.178;2022-08-01T03:29:10;15.30;99.90
64226;DHT22;50545;56.064;26.178;2022-08-01T03:31:39;15.30;99.90
64226;DHT22;50545;56.064;26.178;2022-08-01T03:34:10;15.30;99.90
64226;DHT22;50545;56.064;26.178;2022-08-01T03:36:45;15.30;99.90
64226;DHT22;50545;56.064;26.178;2022-08-01T03:39:16;15.30;99.90
64226;DHT22;50545;56.064;26.178;2022-08-01T03:41:51;15.30;99.90
64226;DHT22;50545;56.064;26.178;2022-08-01T03:44:25;15.30;99.90
64226;DHT22;50545;56.064;26.178;2022-08-01T03:47:00;15.30;99.90
64226;DHT22;50545;56.064;26.178;2022-08-01T03:49:33;15.30;99.90
64226;DHT22;50545;56.064;26.178;2022-08-01T03:52:04;15.30;99.90
64226;DHT22;50545;56.064;26.178;2022-08-01T03:54:37;15.30;99.90
64226;DHT22;50545;56.064;26.178;2022-08-01T03:57:05;15.30;99.90
64226;DHT22;50545;56.064;26.178;2022-08-01T03:59:46;15.30;99.90
64226;DHT22;50545;56.064;26.178;2022-08-01T04:02:14;15.30;99.90
64226;DHT22;50545;56.064;26.178;2022-08-01T04:04:41;15.20;99.90
64226;DHT22;50545;56.064;26.178;2022-08-01T04:09:49;15.20;99.90
64226;DHT22;50545;56.064;26.178;2022-08-01T04:12:17;15.20;99.90
64226;DHT22;50545;56.064;26.178;2022-08-01T04:14:45;15.30;99.90
64226;DHT22;50545;56.064;26.178;2022-08-01T04:17:12;15.30;99.90
64226;DHT22;50545;56.064;26.178;2022-08-01T04:19:40;15.30;99.90
64226;DHT22;50545;56.064;26.178;2022-08-01T04:22:09;15.30;99.90
64226;DHT22;50545;56.064;26.178;2022-08-01T04:24:37;15.20;99.90
64226;DHT22;50545;56.064;26.178;2022-08-01T04:27:08;15.30;99.90
64226;DHT22;50545;56.064;26.178;2022-08-01T04:29:38;15.20;99.90
64226;DHT22;50545;56.064;26.178;2022-08-01T04:32:07;15.30;99.90
64226;DHT22;50545;56.064;26.178;2022-08-01T04:34:36;15.20;99.90
64226;DHT22;50545;56.064;26.178;2022-08-01T04:37:05;15.20;99.90
64226;DHT22;50545;56.064;26.178;2022-08-01T04:39:34;15.30;99.90
64226;DHT22;50545;56.064;26.178;2022-08-01T04:42:17;15.30;99.90
64226;DHT22;50545;56.064;26.178;2022-08-01T04:44:59;15.30;99.90
64226;DHT22;50545;56.064;26.178;2022-08-01T04:47:27;15.30;99.90
64226;DHT22;50545;56.064;26.178;2022-08-01T04:49:55;15.30;99.90
64226;DHT22;50545;56.064;26.178;2022-08-01T04:52:23;15.30;99.90
64226;DHT22;50545;56.064;26.178;2022-08-01T04:54:59;15.30;99.90
64226;DHT22;50545;56.064;26.178;2022-08-01T04:57:26;15.30;99.90
64226;DHT22;50545;56.064;26.178;2022-08-01T04:59:53;15.30;99.90
64226;DHT22;50545;56.064;26.178;2022-08-01T05:02:23;15.30;99.90
64226;DHT22;50545;56.064;26.178;2022-08-01T05:04:50;15.30;99.90
64226;DHT22;50545;56.064;26.178;2022-08-01T05:07:18;15.30;99.90
64226;DHT22;50545;56.064;26.178;2022-08-01T05:09:45;15.30;99.90
64226;DHT22;50545;56.064;26.178;2022-08-01T05:12:13;15.30;99.90
64226;DHT22;50545;56.064;26.178;2022-08-01T05:14:40;15.30;99.90
64226;DHT22;50545;56.064;26.178;2022-08-01T05:17:09;15.30;99.90
64226;DHT22;50545;56.064;26.178;2022-08-01T05:19:37;15.30;99.90
64226;DHT22;50545;56.064;26.178;2022-08-01T05:22:06;15.30;99.90
64226;DHT22;50545;56.064;26.178;2022-08-01T05:24:36;15.30;99.90
64226;DHT22;50545;56.064;26.178;2022-08-01T05:27:06;15.30;99.90
64226;DHT22;50545;56.064;26.178;2022-08-01T05:29:37;15.30;99.90
64226;DHT22;50545;56.064;26.178;2022-08-01T05:32:10;15.40;99.90
64226;DHT22;50545;56.064;26.178;2022-08-01T05:34:37;15.40;99.90
64226;DHT22;50545;56.064;26.178;2022-08-01T05:37:05;15.50;99.90
64226;DHT22;50545;56.064;26.178;2022-08-01T05:39:32;15.50;99.90
64226;DHT22;50545;56.064;26.178;2022-08-01T05:41:59;15.50;99.90
64226;DHT22;50545;56.064;26.178;2022-08-01T05:44:27;15.60;99.90
64226;DHT22;50545;56.064;26.178;2022-08-01T05:46:54;15.60;99.90
64226;DHT22;50545;56.064;26.178;2022-08-01T05:49:21;15.60;99.90
64226;DHT22;50545;56.064;26.178;2022-08-01T05:51:49;15.60;99.90
64226;DHT22;50545;56.064;26.178;2022-08-01T05:54:16;15.70;99.90
64226;DHT22;50545;56.064;26.178;2022-08-01T05:56:43;15.70;99.90
64226;DHT22;50545;56.064;26.178;2022-08-01T05:59:11;15.70;99.90
64226;DHT22;50545;56.064;26.178;2022-08-01T06:01:38;15.80;99.90
64226;DHT22;50545;56.064;26.178;2022-08-01T06:04:10;15.80;99.90
64226;DHT22;50545;56.064;26.178;2022-08-01T06:06:37;15.80;99.90
64226;DHT22;50545;56.064;26.178;2022-08-01T06:09:04;15.80;99.90
64226;DHT22;50545;56.064;26.178;2022-08-01T06:11:32;15.90;99.90
64226;DHT22;50545;56.064;26.178;2022-08-01T06:13:59;15.90;99.90
64226;DHT22;50545;56.064;26.178;2022-08-01T06:16:26;15.90;99.90
64226;DHT22;50545;56.064;26.178;2022-08-01T06:18:54;15.90;99.90
64226;DHT22;50545;56.064;26.178;2022-08-01T06:21:22;16.00;99.90
64226;DHT22;50545;56.064;26.178;2022-08-01T06:23:50;16.00;99.90
64226;DHT22;50545;56.064;26.178;2022-08-01T06:26:18;16.00;99.90
64226;DHT22;50545;56.064;26.178;2022-08-01T06:28:46;16.10;99.90
64226;DHT22;50545;56.064;26.178;2022-08-01T06:31:13;16.10;99.90
64226;DHT22;50545;56.064;26.178;2022-08-01T06:33:42;16.20;99.90
64226;DHT22;50545;56.064;26.178;2022-08-01T06:36:09;16.30;99.90
64226;DHT22;50545;56.064;26.178;2022-08-01T06:38:37;16.40;99.90
64226;DHT22;50545;56.064;26.178;2022-08-01T06:41:05;16.40;99.90
64226;DHT22;50545;56.064;26.178;2022-08-01T06:43:32;16.50;99.90
64226;DHT22;50545;56.064;26.178;2022-08-01T06:45:59;16.60;99.90
64226;DHT22;50545;56.064;26.178;2022-08-01T06:48:26;16.70;99.90
64226;DHT22;50545;56.064;26.178;2022-08-01T06:50:54;16.80;99.90
64226;DHT22;50545;56.064;26.178;2022-08-01T06:53:38;16.80;99.90
64226;DHT22;50545;56.064;26.178;2022-08-01T06:56:05;16.90;99.90
64226;DHT22;50545;56.064;26.178;2022-08-01T06:58:33;17.00;99.90
64226;DHT22;50545;56.064;26.178;2022-08-01T07:01:03;17.00;99.90
64226;DHT22;50545;56.064;26.178;2022-08-01T07:03:36;17.00;99.90
64226;DHT22;50545;56.064;26.178;2022-08-01T07:06:22;17.10;99.90
64226;DHT22;50545;56.064;26.178;2022-08-01T07:08:51;17.20;99.90
64226;DHT22;50545;56.064;26.178;2022-08-01T07:11:19;17.30;99.90
64226;DHT22;50545;56.064;26.178;2022-08-01T07:13:46;17.30;99.90
64226;DHT22;50545;56.064;26.178;2022-08-01T07:16:15;17.30;99.90
64226;DHT22;50545;56.064;26.178;2022-08-01T07:18:43;17.40;99.90
64226;DHT22;50545;56.064;26.178;2022-08-01T07:21:11;17.50;99.90
64226;DHT22;50545;56.064;26.178;2022-08-01T07:23:58;17.50;99.90
64226;DHT22;50545;56.064;26.178;2022-08-01T07:26:26;17.50;99.90
64226;DHT22;50545;56.064;26.178;2022-08-01T07:28:54;17.60;99.90
64226;DHT22;50545;56.064;26.178;2022-08-01T07:31:22;17.60;99.90
64226;DHT22;50545;56.064;26.178;2022-08-01T07:33:54;17.60;99.90
64226;DHT22;50545;56.064;26.178;2022-08-01T07:36:21;17.70;99.90
64226;DHT22;50545;56.064;26.178;2022-08-01T07:38:48;17.80;99.90
64226;DHT22;50545;56.064;26.178;2022-08-01T07:41:16;17.80;99.90
64226;DHT22;50545;56.064;26.178;2022-08-01T07:43:43;17.80;99.90
64226;DHT22;50545;56.064;26.178;2022-08-01T07:46:23;17.90;99.90
64226;DHT22;50545;56.064;26.178;2022-08-01T07:48:50;17.90;99.90
64226;DHT22;50545;56.064;26.178;2022-08-01T07:51:18;17.90;99.90
64226;DHT22;50545;56.064;26.178;2022-08-01T07:53:45;18.00;99.90
64226;DHT22;50545;56.064;26.178;2022-08-01T07:56:12;18.00;99.90
64226;DHT22;50545;56.064;26.178;2022-08-01T07:58:40;18.00;99.90
64226;DHT22;50545;56.064;26.178;2022-08-01T08:01:07;18.10;99.90
64226;DHT22;50545;56.064;26.178;2022-08-01T08:03:34;18.10;99.90
64226;DHT22;50545;56.064;26.178;2022-08-01T08:06:01;18.10;99.90
64226;DHT22;50545;56.064;26.178;2022-08-01T08:08:29;18.10;99.90
64226;DHT22;50545;56.064;26.178;2022-08-01T08:10:56;18.10;99.90
64226;DHT22;50545;56.064;26.178;2022-08-01T08:13:23;18.20;99.90
64226;DHT22;50545;56.064;26.178;2022-08-01T08:15:50;18.20;99.90
64226;DHT22;50545;56.064;26.178;2022-08-01T08:18:17;18.10;99.90
64226;DHT22;50545;56.064;26.178;2022-08-01T08:20:45;18.10;99.90
64226;DHT22;50545;56.064;26.178;2022-08-01T08:23:15;18.10;99.90
64226;DHT22;50545;56.064;26.178;2022-08-01T08:26:11;18.10;99.90
64226;DHT22;50545;56.064;26.178;2022-08-01T08:28:39;18.10;99.90
64226;DHT22;50545;56.064;26.178;2022-08-01T08:31:07;18.10;99.90
64226;DHT22;50545;56.064;26.178;2022-08-01T08:33:55;18.10;99.90
64226;DHT22;50545;56.064;26.178;2022-08-01T08:36:22;18.10;99.90
64226;DHT22;50545;56.064;26.178;2022-08-01T08:38:58;18.10;99.90
64226;DHT22;50545;56.064;26.178;2022-08-01T08:41:32;18.10;99.90
64226;DHT22;50545;56.064;26.178;2022-08-01T08:44:08;18.10;99.90
64226;DHT22;50545;56.064;26.178;2022-08-01T08:46:42;18.10;99.90
64226;DHT22;50545;56.064;26.178;2022-08-01T08:49:12;18.10;99.90
64226;DHT22;50545;56.064;26.178;2022-08-01T08:51:43;18.20;99.90
64226;DHT22;50545;56.064;26.178;2022-08-01T08:54:11;18.20;99.90
64226;DHT22;50545;56.064;26.178;2022-08-01T08:56:42;18.30;99.90
64226;DHT22;50545;56.064;26.178;2022-08-01T08:59:12;18.30;99.90
64226;DHT22;50545;56.064;26.178;2022-08-01T09:01:42;18.40;99.90
64226;DHT22;50545;56.064;26.178;2022-08-01T09:04:10;18.40;99.90
64226;DHT22;50545;56.064;26.178;2022-08-01T09:06:38;18.50;99.90
64226;DHT22;50545;56.064;26.178;2022-08-01T09:09:07;18.60;99.90
64226;DHT22;50545;56.064;26.178;2022-08-01T09:11:35;18.70;99.90
64226;DHT22;50545;56.064;26.178;2022-08-01T09:16:34;18.90;99.90
64226;DHT22;50545;56.064;26.178;2022-08-01T09:19:09;19.00;99.90
64226;DHT22;50545;56.064;26.178;2022-08-01T09:21:58;19.00;99.90
64226;DHT22;50545;56.064;26.178;2022-08-01T09:24:27;19.10;99.90
64226;DHT22;50545;56.064;26.178;2022-08-01T09:26:57;19.20;99.90
64226;DHT22;50545;56.064;26.178;2022-08-01T09:29:30;19.30;99.90
64226;DHT22;50545;56.064;26.178;2022-08-01T09:32:06;19.30;99.90
64226;DHT22;50545;56.064;26.178;2022-08-01T09:34:42;19.40;99.90
64226;DHT22;50545;56.064;26.178;2022-08-01T09:37:09;19.50;99.90
64226;DHT22;50545;56.064;26.178;2022-08-01T09:39:37;19.60;99.90
64226;DHT22;50545;56.064;26.178;2022-08-01T09:42:20;19.60;99.90
64226;DHT22;50545;56.064;26.178;2022-08-01T09:44:55;19.60;99.90
64226;DHT22;50545;56.064;26.178;2022-08-01T09:47:37;19.70;99.90
64226;DHT22;50545;56.064;26.178;2022-08-01T09:50:05;19.70;99.90
64226;DHT22;50545;56.064;26.178;2022-08-01T09:52:37;19.70;99.90
64226;DHT22;50545;56.064;26.178;2022-08-01T09:55:07;19.70;99.90
64226;DHT22;50545;56.064;26.178;2022-08-01T09:57:34;19.80;99.90
64226;DHT22;50545;56.064;26.178;2022-08-01T10:00:03;19.70;99.90
64226;DHT22;50545;56.064;26.178;2022-08-01T10:02:37;19.70;99.90
64226;DHT22;50545;56.064;26.178;2022-08-01T10:05:08;19.70;99.90
64226;DHT22;50545;56.064;26.178;2022-08-01T10:07:58;19.70;99.90
64226;DHT22;50545;56.064;26.178;2022-08-01T10:10:26;19.70;99.90
64226;DHT22;50545;56.064;26.178;2022-08-01T10:12:59;19.80;99.90
64226;DHT22;50545;56.064;26.178;2022-08-01T10:15:30;19.80;99.90
64226;DHT22;50545;56.064;26.178;2022-08-01T10:18:06;19.90;99.90
64226;DHT22;50545;56.064;26.178;2022-08-01T10:20:52;19.90;99.90
64226;DHT22;50545;56.064;26.178;2022-08-01T10:23:25;19.90;99.90
64226;DHT22;50545;56.064;26.178;2022-08-01T10:26:08;19.80;99.90
64226;DHT22;50545;56.064;26.178;2022-08-01T10:28:37;19.80;99.90
64226;DHT22;50545;56.064;26.178;2022-08-01T10:31:07;19.80;99.90
64226;DHT22;50545;56.064;26.178;2022-08-01T10:33:40;19.90;99.90
64226;DHT22;50545;56.064;26.178;2022-08-01T10:36:21;19.80;99.90
64226;DHT22;50545;56.064;26.178;2022-08-01T10:38:53;19.80;99.90
64226;DHT22;50545;56.064;26.178;2022-08-01T10:41:22;19.80;99.90
64226;DHT22;50545;56.064;26.178;2022-08-01T10:43:53;19.80;99.90
64226;DHT22;50545;56.064;26.178;2022-08-01T10:46:22;19.90;99.90
64226;DHT22;50545;56.064;26.178;2022-08-01T10:49:03;19.80;99.90
64226;DHT22;50545;56.064;26.178;2022-08-01T10:51:35;19.80;99.90
64226;DHT22;50545;56.064;26.178;2022-08-01T10:54:24;19.90;99.90
64226;DHT22;50545;56.064;26.178;2022-08-01T10:56:53;19.90;99.90
64226;DHT22;50545;56.064;26.178;2022-08-01T10:59:29;19.90;99.90
64226;DHT22;50545;56.064;26.178;2022-08-01T11:02:32;20.00;99.90
64226;DHT22;50545;56.064;26.178;2022-08-01T11:05:07;20.00;99.90
64226;DHT22;50545;56.064;26.178;2022-08-01T11:07:47;20.00;99.90
64226;DHT22;50545;56.064;26.178;2022-08-01T11:10:38;20.10;99.90
64226;DHT22;50545;56.064;26.178;2022-08-01T11:13:06;20.10;99.90
64226;DHT22;50545;56.064;26.178;2022-08-01T11:15:40;20.10;99.90
64226;DHT22;50545;56.064;26.178;2022-08-01T11:18:29;20.20;99.90
64226;DHT22;50545;56.064;26.178;2022-08-01T11:20:59;20.20;99.90
64226;DHT22;50545;56.064;26.178;2022-08-01T11:23:48;20.10;99.90
64226;DHT22;50545;56.064;26.178;2022-08-01T11:26:16;20.10;99.90
64226;DHT22;50545;56.064;26.178;2022-08-01T11:29:15;20.10;99.90
64226;DHT22;50545;56.064;26.178;2022-08-01T11:31:47;20.00;99.90
64226;DHT22;50545;56.064;26.178;2022-08-01T11:34:15;20.10;99.90
64226;DHT22;50545;56.064;26.178;2022-08-01T11:36:42;20.10;99.90
64226;DHT22;50545;56.064;26.178;2022-08-01T11:39:26;20.20;99.90
64226;DHT22;50545;56.064;26.178;2022-08-01T11:41:55;20.30;99.90
64226;DHT22;50545;56.064;26.178;2022-08-01T11:44:49;20.20;99.90
64226;DHT22;50545;56.064;26.178;2022-08-01T11:47:18;20.20;99.90
64226;DHT22;50545;56.064;26.178;2022-08-01T11:50:06;20.20;99.90
64226;DHT22;50545;56.064;26.178;2022-08-01T11:52:33;20.20;99.90
64226;DHT22;50545;56.064;26.178;2022-08-01T11:55:08;20.20;99.90
64226;DHT22;50545;56.064;26.178;2022-08-01T11:57:37;20.20;99.90
64226;DHT22;50545;56.064;26.178;2022-08-01T12:00:18;20.10;99.90
64226;DHT22;50545;56.064;26.178;2022-08-01T12:02:46;20.10;99.90
64226;DHT22;50545;56.064;26.178;2022-08-01T12:05:25;20.00;99.90
64226;DHT22;50545;56.064;26.178;2022-08-01T12:07:54;19.90;99.90
64226;DHT22;50545;56.064;26.178;2022-08-01T12:10:25;19.70;99.90
64226;DHT22;50545;56.064;26.178;2022-08-01T12:12:53;19.60;99.90
64226;DHT22;50545;56.064;26.178;2022-08-01T12:15:23;19.60;99.90
64226;DHT22;50545;56.064;26.178;2022-08-01T12:18:01;19.80;99.90
64226;DHT22;50545;56.064;26.178;2022-08-01T12:20:31;20.00;99.90
64226;DHT22;50545;56.064;26.178;2022-08-01T12:23:02;20.40;99.90
64226;DHT22;50545;56.064;26.178;2022-08-01T12:25:29;20.80;99.90
64226;DHT22;50545;56.064;26.178;2022-08-01T12:28:18;21.30;99.90
64226;DHT22;50545;56.064;26.178;2022-08-01T12:30:47;21.70;99.90
64226;DHT22;50545;56.064;26.178;2022-08-01T12:33:18;22.20;99.90
64226;DHT22;50545;56.064;26.178;2022-08-01T12:35:45;22.20;99.90
64226;DHT22;50545;56.064;26.178;2022-08-01T12:38:19;21.90;99.90
64226;DHT22;50545;56.064;26.178;2022-08-01T12:40:48;21.70;99.90
64226;DHT22;50545;56.064;26.178;2022-08-01T12:43:22;21.50;99.90
64226;DHT22;50545;56.064;26.178;2022-08-01T12:45:55;21.20;99.90
64226;DHT22;50545;56.064;26.178;2022-08-01T12:48:24;21.00;99.90
64226;DHT22;50545;56.064;26.178;2022-08-01T12:50:52;20.90;99.90
64226;DHT22;50545;56.064;26.178;2022-08-01T12:53:20;20.90;99.90
64226;DHT22;50545;56.064;26.178;2022-08-01T12:55:54;20.80;99.90
64226;DHT22;50545;56.064;26.178;2022-08-01T12:58:34;20.80;99.90
64226;DHT22;50545;56.064;26.178;2022-08-01T13:01:06;20.80;99.90
64226;DHT22;50545;56.064;26.178;2022-08-01T13:03:34;20.80;99.90
64226;DHT22;50545;56.064;26.178;2022-08-01T13:06:10;20.90;99.90
64226;DHT22;50545;56.064;26.178;2022-08-01T13:08:38;21.30;99.90
64226;DHT22;50545;56.064;26.178;2022-08-01T13:11:10;21.60;99.90
64226;DHT22;50545;56.064;26.178;2022-08-01T13:13:49;21.70;99.90
64226;DHT22;50545;56.064;26.178;2022-08-01T13:16:20;21.40;99.90
64226;DHT22;50545;56.064;26.178;2022-08-01T13:19:07;21.10;99.90
64226;DHT22;50545;56.064;26.178;2022-08-01T13:21:35;20.80;99.90
64226;DHT22;50545;56.064;26.178;2022-08-01T13:24:28;20.70;99.90
64226;DHT22;50545;56.064;26.178;2022-08-01T13:26:57;20.60;99.90
64226;DHT22;50545;56.064;26.178;2022-08-01T13:29:38;20.60;99.90
64226;DHT22;50545;56.064;26.178;2022-08-01T13:32:18;20.50;99.90
64226;DHT22;50545;56.064;26.178;2022-08-01T13:35:09;20.50;99.90
64226;DHT22;50545;56.064;26.178;2022-08-01T13:37:37;20.70;99.90
64226;DHT22;50545;56.064;26.178;2022-08-01T13:40:06;20.90;99.90
64226;DHT22;50545;56.064;26.178;2022-08-01T13:42:34;20.90;99.90
64226;DHT22;50545;56.064;26.178;2022-08-01T13:45:03;21.00;99.90
64226;DHT22;50545;56.064;26.178;2022-08-01T13:47:43;21.10;99.90
64226;DHT22;50545;56.064;26.178;2022-08-01T13:50:31;21.10;99.90
64226;DHT22;50545;56.064;26.178;2022-08-01T13:52:58;21.10;99.90
64226;DHT22;50545;56.064;26.178;2022-08-01T13:55:26;21.00;99.90
64226;DHT22;50545;56.064;26.178;2022-08-01T13:57:59;20.90;99.90
64226;DHT22;50545;56.064;26.178;2022-08-01T14:00:27;20.70;99.90
64226;DHT22;50545;56.064;26.178;2022-08-01T14:02:54;20.50;99.90
64226;DHT22;50545;56.064;26.178;2022-08-01T14:05:22;20.40;99.90
64226;DHT22;50545;56.064;26.178;2022-08-01T14:07:49;20.20;99.90
64226;DHT22;50545;56.064;26.178;2022-08-01T14:10:23;20.30;99.90
64226;DHT22;50545;56.064;26.178;2022-08-01T14:12:50;20.40;99.90
64226;DHT22;50545;56.064;26.178;2022-08-01T14:15:17;20.60;99.90
64226;DHT22;50545;56.064;26.178;2022-08-01T14:18:06;20.90;99.90
64226;DHT22;50545;56.064;26.178;2022-08-01T14:20:36;21.40;99.90
64226;DHT22;50545;56.064;26.178;2022-08-01T14:23:04;21.40;99.00
64226;DHT22;50545;56.064;26.178;2022-08-01T14:25:38;21.40;99.90
64226;DHT22;50545;56.064;26.178;2022-08-01T14:28:26;21.20;99.90
64226;DHT22;50545;56.064;26.178;2022-08-01T14:30:56;21.10;99.90
64226;DHT22;50545;56.064;26.178;2022-08-01T14:33:24;21.10;99.90
64226;DHT22;50545;56.064;26.178;2022-08-01T14:35:51;21.40;99.90
64226;DHT22;50545;56.064;26.178;2022-08-01T14:38:39;21.80;99.90
64226;DHT22;50545;56.064;26.178;2022-08-01T14:41:07;22.20;89.20
64226;DHT22;50545;56.064;26.178;2022-08-01T14:43:35;22.30;94.30
64226;DHT22;50545;56.064;26.178;2022-08-01T14:46:02;22.50;92.70
64226;DHT22;50545;56.064;26.178;2022-08-01T14:48:31;22.90;92.50
64226;DHT22;50545;56.064;26.178;2022-08-01T14:50:58;23.10;88.50
64226;DHT22;50545;56.064;26.178;2022-08-01T14:53:30;23.40;79.10
64226;DHT22;50545;56.064;26.178;2022-08-01T14:56:02;23.20;78.60
64226;DHT22;50545;56.064;26.178;2022-08-01T14:58:30;22.90;80.10
64226;DHT22;50545;56.064;26.178;2022-08-01T15:00:57;22.70;81.90
64226;DHT22;50545;56.064;26.178;2022-08-01T15:03:25;22.40;82.70
64226;DHT22;50545;56.064;26.178;2022-08-01T15:05:53;22.10;88.00
64226;DHT22;50545;56.064;26.178;2022-08-01T15:08:20;21.90;90.30
64226;DHT22;50545;56.064;26.178;2022-08-01T15:10:48;21.70;90.50
64226;DHT22;50545;56.064;26.178;2022-08-01T15:13:15;21.50;92.50
64226;DHT22;50545;56.064;26.178;2022-08-01T15:15:42;21.30;95.40
64226;DHT22;50545;56.064;26.178;2022-08-01T15:18:10;21.30;97.30
64226;DHT22;50545;56.064;26.178;2022-08-01T15:20:37;21.30;99.20
64226;DHT22;50545;56.064;26.178;2022-08-01T15:23:05;21.40;97.30
64226;DHT22;50545;56.064;26.178;2022-08-01T15:25:32;21.50;96.80
64226;DHT22;50545;56.064;26.178;2022-08-01T15:28:09;21.70;98.30
64226;DHT22;50545;56.064;26.178;2022-08-01T15:30:37;21.80;96.10
64226;DHT22;50545;56.064;26.178;2022-08-01T15:33:04;22.00;94.50
64226;DHT22;50545;56.064;26.178;2022-08-01T15:35:32;22.10;92.10
64226;DHT22;50545;56.064;26.178;2022-08-01T15:38:00;22.20;90.70
64226;DHT22;50545;56.064;26.178;2022-08-01T15:40:27;22.20;90.40
64226;DHT22;50545;56.064;26.178;2022-08-01T15:42:55;22.00;91.30
64226;DHT22;50545;56.064;26.178;2022-08-01T15:45:23;22.00;92.40
64226;DHT22;50545;56.064;26.178;2022-08-01T15:48:10;21.90;93.90
64226;DHT22;50545;56.064;26.178;2022-08-01T15:50:38;21.60;92.90
64226;DHT22;50545;56.064;26.178;2022-08-01T15:53:05;21.30;95.50
64226;DHT22;50545;56.064;26.178;2022-08-01T15:55:37;21.20;97.80
64226;DHT22;50545;56.064;26.178;2022-08-01T15:58:06;21.00;99.50